Terminal Aerodrome Forecast
Issued by NWS

Home | Current Version | Previous Version | Text Only | Print | Product List | Glossary On
Versions: 1 2 3 4 5 6 7 8 9 10 11 12 13
000
FTUS43 KGRB 122300
TAFATW
TAF
KATW 122329Z 1300/1324 25006KT P6SM VCSH SCT035 OVC080
      TEMPO 1300/1304 4SM SHRA BKN035
     FM130400 26006KT P6SM SCT025 BKN100
     FM130800 28009KT P6SM SCT100
     FM131500 28013G20KT P6SM SCT040=

USA.gov is the U.S. government's official web portal to all federal, state and local government web resources and services.